sensor_id;sensor_type;location;lat;lon;timestamp;temperature;humidity
12130;DHT22;6128;59.340;18.040;2023-02-24T00:01:37;0.50;99.90
12130;DHT22;6128;59.340;18.040;2023-02-24T00:04:09;0.50;99.90
12130;DHT22;6128;59.340;18.040;2023-02-24T00:06:38;0.60;99.90
12130;DHT22;6128;59.340;18.040;2023-02-24T00:09:07;0.60;99.90
12130;DHT22;6128;59.340;18.040;2023-02-24T00:11:41;0.60;99.90
12130;DHT22;6128;59.340;18.040;2023-02-24T00:14:12;0.50;99.90
12130;DHT22;6128;59.340;18.040;2023-02-24T00:16:41;0.30;99.90
12130;DHT22;6128;59.340;18.040;2023-02-24T00:19:10;0.10;99.90
12130;DHT22;6128;59.340;18.040;2023-02-24T00:21:38;0.10;99.90
12130;DHT22;6128;59.340;18.040;2023-02-24T00:24:06;0.10;99.90
12130;DHT22;6128;59.340;18.040;2023-02-24T00:26:33;0.20;99.90
12130;DHT22;6128;59.340;18.040;2023-02-24T00:29:04;0.10;99.90
12130;DHT22;6128;59.340;18.040;2023-02-24T00:31:31;0.10;99.90
12130;DHT22;6128;59.340;18.040;2023-02-24T00:34:00;0.20;99.90
12130;DHT22;6128;59.340;18.040;2023-02-24T00:36:29;0.20;99.90
12130;DHT22;6128;59.340;18.040;2023-02-24T00:39:00;0.30;99.90
12130;DHT22;6128;59.340;18.040;2023-02-24T00:41:29;0.30;99.90
12130;DHT22;6128;59.340;18.040;2023-02-24T00:43:58;0.30;99.90
12130;DHT22;6128;59.340;18.040;2023-02-24T00:46:34;0.30;99.90
12130;DHT22;6128;59.340;18.040;2023-02-24T00:49:02;0.30;99.90
12130;DHT22;6128;59.340;18.040;2023-02-24T00:51:34;0.30;99.90
12130;DHT22;6128;59.340;18.040;2023-02-24T00:54:02;0.30;99.90
12130;DHT22;6128;59.340;18.040;2023-02-24T00:56:30;0.20;99.90
12130;DHT22;6128;59.340;18.040;2023-02-24T00:58:59;0.20;99.90
12130;DHT22;6128;59.340;18.040;2023-02-24T01:01:28;0.20;99.90
12130;DHT22;6128;59.340;18.040;2023-02-24T01:03:58;0.20;99.90
12130;DHT22;6128;59.340;18.040;2023-02-24T01:06:32;0.20;99.90
12130;DHT22;6128;59.340;18.040;2023-02-24T01:09:00;0.20;99.90
12130;DHT22;6128;59.340;18.040;2023-02-24T01:11:32;0.20;99.90
12130;DHT22;6128;59.340;18.040;2023-02-24T01:14:18;0.20;99.90
12130;DHT22;6128;59.340;18.040;2023-02-24T01:16:46;0.10;99.90
12130;DHT22;6128;59.340;18.040;2023-02-24T01:19:17;0.10;99.90
12130;DHT22;6128;59.340;18.040;2023-02-24T01:21:44;0.10;99.90
12130;DHT22;6128;59.340;18.040;2023-02-24T01:24:11;0.20;99.90
12130;DHT22;6128;59.340;18.040;2023-02-24T01:26:42;0.20;99.90
12130;DHT22;6128;59.340;18.040;2023-02-24T01:29:15;0.20;99.90
12130;DHT22;6128;59.340;18.040;2023-02-24T01:31:42;0.20;99.90
12130;DHT22;6128;59.340;18.040;2023-02-24T01:34:09;0.10;99.90
12130;DHT22;6128;59.340;18.040;2023-02-24T01:36:41;0.20;99.90
12130;DHT22;6128;59.340;18.040;2023-02-24T01:39:09;0.20;99.90
12130;DHT22;6128;59.340;18.040;2023-02-24T01:41:37;0.20;99.90
12130;DHT22;6128;59.340;18.040;2023-02-24T01:47:14;0.10;99.90
12130;DHT22;6128;59.340;18.040;2023-02-24T01:49:44;0.20;99.90
12130;DHT22;6128;59.340;18.040;2023-02-24T01:52:16;0.20;99.90
12130;DHT22;6128;59.340;18.040;2023-02-24T01:54:47;0.20;99.90
12130;DHT22;6128;59.340;18.040;2023-02-24T01:57:18;0.20;99.90
12130;DHT22;6128;59.340;18.040;2023-02-24T01:59:50;0.10;99.90
12130;DHT22;6128;59.340;18.040;2023-02-24T02:02:21;0.10;99.90
12130;DHT22;6128;59.340;18.040;2023-02-24T02:04:50;0.10;99.90
12130;DHT22;6128;59.340;18.040;2023-02-24T02:07:22;0.10;99.90
12130;DHT22;6128;59.340;18.040;2023-02-24T02:09:51;0.10;99.90
12130;DHT22;6128;59.340;18.040;2023-02-24T02:12:21;0.10;99.90
12130;DHT22;6128;59.340;18.040;2023-02-24T02:14:51;0.10;99.90
12130;DHT22;6128;59.340;18.040;2023-02-24T02:17:27;0.10;99.90
12130;DHT22;6128;59.340;18.040;2023-02-24T02:23:19;0.10;99.90
12130;DHT22;6128;59.340;18.040;2023-02-24T02:26:06;0.10;99.90
12130;DHT22;6128;59.340;18.040;2023-02-24T02:28:58;0.10;99.90
12130;DHT22;6128;59.340;18.040;2023-02-24T02:31:43;0.20;99.90
12130;DHT22;6128;59.340;18.040;2023-02-24T02:34:35;0.20;99.90
12130;DHT22;6128;59.340;18.040;2023-02-24T02:37:12;0.10;99.90
12130;DHT22;6128;59.340;18.040;2023-02-24T02:39:48;0.10;99.90
12130;DHT22;6128;59.340;18.040;2023-02-24T02:42:24;0.00;99.90
12130;DHT22;6128;59.340;18.040;2023-02-24T02:45:01;0.00;99.90
12130;DHT22;6128;59.340;18.040;2023-02-24T02:47:34;0.00;99.90
12130;DHT22;6128;59.340;18.040;2023-02-24T02:50:10;0.10;99.90
12130;DHT22;6128;59.340;18.040;2023-02-24T02:52:48;0.10;99.90
12130;DHT22;6128;59.340;18.040;2023-02-24T02:55:21;0.10;99.90
12130;DHT22;6128;59.340;18.040;2023-02-24T02:57:51;0.10;99.90
12130;DHT22;6128;59.340;18.040;2023-02-24T03:00:22;0.00;99.90
12130;DHT22;6128;59.340;18.040;2023-02-24T03:02:56;0.00;99.90
12130;DHT22;6128;59.340;18.040;2023-02-24T03:05:32;0.00;99.90
12130;DHT22;6128;59.340;18.040;2023-02-24T03:08:04;0.00;99.90
12130;DHT22;6128;59.340;18.040;2023-02-24T03:10:36;0.00;99.90
12130;DHT22;6128;59.340;18.040;2023-02-24T03:13:06;0.10;99.90
12130;DHT22;6128;59.340;18.040;2023-02-24T03:15:36;0.10;99.90
12130;DHT22;6128;59.340;18.040;2023-02-24T03:18:10;0.10;99.90
12130;DHT22;6128;59.340;18.040;2023-02-24T03:20:44;0.10;99.90
12130;DHT22;6128;59.340;18.040;2023-02-24T03:23:15;0.10;99.90
12130;DHT22;6128;59.340;18.040;2023-02-24T03:25:50;0.10;99.90
12130;DHT22;6128;59.340;18.040;2023-02-24T03:28:21;0.10;99.90
12130;DHT22;6128;59.340;18.040;2023-02-24T03:30:55;0.10;99.90
12130;DHT22;6128;59.340;18.040;2023-02-24T03:33:28;0.00;99.90
12130;DHT22;6128;59.340;18.040;2023-02-24T03:35:59;-0.10;99.90
12130;DHT22;6128;59.340;18.040;2023-02-24T03:38:28;-0.10;99.90
12130;DHT22;6128;59.340;18.040;2023-02-24T03:40:56;-0.10;99.90
12130;DHT22;6128;59.340;18.040;2023-02-24T03:43:27;0.00;99.90
12130;DHT22;6128;59.340;18.040;2023-02-24T03:45:57;0.00;99.90
12130;DHT22;6128;59.340;18.040;2023-02-24T03:48:26;0.10;99.90
12130;DHT22;6128;59.340;18.040;2023-02-24T03:50:54;0.10;99.90
12130;DHT22;6128;59.340;18.040;2023-02-24T03:53:36;0.10;99.90
12130;DHT22;6128;59.340;18.040;2023-02-24T03:56:17;0.10;99.90
12130;DHT22;6128;59.340;18.040;2023-02-24T03:58:56;0.20;99.90
12130;DHT22;6128;59.340;18.040;2023-02-24T04:01:30;0.20;99.90
12130;DHT22;6128;59.340;18.040;2023-02-24T04:04:04;0.20;99.90
12130;DHT22;6128;59.340;18.040;2023-02-24T04:06:38;0.20;99.90
12130;DHT22;6128;59.340;18.040;2023-02-24T04:09:14;0.20;99.90
12130;DHT22;6128;59.340;18.040;2023-02-24T04:11:48;0.20;99.90
12130;DHT22;6128;59.340;18.040;2023-02-24T04:14:26;0.20;99.90
12130;DHT22;6128;59.340;18.040;2023-02-24T04:16:58;0.20;99.90
12130;DHT22;6128;59.340;18.040;2023-02-24T04:19:30;0.20;99.90
12130;DHT22;6128;59.340;18.040;2023-02-24T04:21:59;0.20;99.90
12130;DHT22;6128;59.340;18.040;2023-02-24T04:24:29;0.20;99.90
12130;DHT22;6128;59.340;18.040;2023-02-24T04:26:58;0.10;99.90
12130;DHT22;6128;59.340;18.040;2023-02-24T04:29:29;0.10;99.90
12130;DHT22;6128;59.340;18.040;2023-02-24T04:32:02;0.20;99.90
12130;DHT22;6128;59.340;18.040;2023-02-24T04:34:31;0.20;99.90
12130;DHT22;6128;59.340;18.040;2023-02-24T04:36:59;0.10;99.90
12130;DHT22;6128;59.340;18.040;2023-02-24T04:39:29;0.10;99.90
12130;DHT22;6128;59.340;18.040;2023-02-24T04:41:56;0.10;99.90
12130;DHT22;6128;59.340;18.040;2023-02-24T04:44:34;0.10;99.90
12130;DHT22;6128;59.340;18.040;2023-02-24T04:47:01;0.10;99.90
12130;DHT22;6128;59.340;18.040;2023-02-24T04:49:28;0.10;99.90
12130;DHT22;6128;59.340;18.040;2023-02-24T04:51:55;0.10;99.90
12130;DHT22;6128;59.340;18.040;2023-02-24T04:54:23;0.10;99.90
12130;DHT22;6128;59.340;18.040;2023-02-24T04:56:51;0.10;99.90
12130;DHT22;6128;59.340;18.040;2023-02-24T04:59:20;0.10;99.90
12130;DHT22;6128;59.340;18.040;2023-02-24T05:01:48;0.10;99.90
12130;DHT22;6128;59.340;18.040;2023-02-24T05:04:17;0.10;99.90
12130;DHT22;6128;59.340;18.040;2023-02-24T05:06:45;0.10;99.90
12130;DHT22;6128;59.340;18.040;2023-02-24T05:09:13;0.00;99.90
12130;DHT22;6128;59.340;18.040;2023-02-24T05:11:44;0.10;99.90
12130;DHT22;6128;59.340;18.040;2023-02-24T05:14:16;0.10;99.90
12130;DHT22;6128;59.340;18.040;2023-02-24T05:16:46;0.00;99.90
12130;DHT22;6128;59.340;18.040;2023-02-24T05:19:16;0.00;99.90
12130;DHT22;6128;59.340;18.040;2023-02-24T05:22:06;-0.10;99.90
12130;DHT22;6128;59.340;18.040;2023-02-24T05:24:36;-0.10;99.90
12130;DHT22;6128;59.340;18.040;2023-02-24T05:27:03;-0.10;99.90
12130;DHT22;6128;59.340;18.040;2023-02-24T05:29:33;0.00;99.90
12130;DHT22;6128;59.340;18.040;2023-02-24T05:32:02;0.00;99.90
12130;DHT22;6128;59.340;18.040;2023-02-24T05:34:31;0.00;99.90
12130;DHT22;6128;59.340;18.040;2023-02-24T05:37:01;0.10;99.90
12130;DHT22;6128;59.340;18.040;2023-02-24T05:39:35;0.10;99.90
12130;DHT22;6128;59.340;18.040;2023-02-24T05:42:05;0.10;99.90
12130;DHT22;6128;59.340;18.040;2023-02-24T05:44:35;0.10;99.90
12130;DHT22;6128;59.340;18.040;2023-02-24T05:47:05;0.00;99.90
12130;DHT22;6128;59.340;18.040;2023-02-24T05:49:33;-0.10;99.90
12130;DHT22;6128;59.340;18.040;2023-02-24T05:52:07;0.00;99.90
12130;DHT22;6128;59.340;18.040;2023-02-24T05:54:37;0.00;99.90
12130;DHT22;6128;59.340;18.040;2023-02-24T05:57:06;0.00;99.90
12130;DHT22;6128;59.340;18.040;2023-02-24T05:59:38;0.00;99.90
12130;DHT22;6128;59.340;18.040;2023-02-24T06:02:07;0.00;99.90
12130;DHT22;6128;59.340;18.040;2023-02-24T06:04:36;0.00;99.90
12130;DHT22;6128;59.340;18.040;2023-02-24T06:07:12;0.10;99.90
12130;DHT22;6128;59.340;18.040;2023-02-24T06:09:43;0.10;99.90
12130;DHT22;6128;59.340;18.040;2023-02-24T06:12:14;0.10;99.90
12130;DHT22;6128;59.340;18.040;2023-02-24T06:14:43;0.10;99.90
12130;DHT22;6128;59.340;18.040;2023-02-24T06:17:10;0.20;99.90
12130;DHT22;6128;59.340;18.040;2023-02-24T06:19:39;0.20;99.90
12130;DHT22;6128;59.340;18.040;2023-02-24T06:22:11;0.20;99.90
12130;DHT22;6128;59.340;18.040;2023-02-24T06:24:41;0.20;99.90
12130;DHT22;6128;59.340;18.040;2023-02-24T06:27:10;0.20;99.90
12130;DHT22;6128;59.340;18.040;2023-02-24T06:29:44;0.20;99.90
12130;DHT22;6128;59.340;18.040;2023-02-24T06:32:12;0.20;99.90
12130;DHT22;6128;59.340;18.040;2023-02-24T06:34:39;0.20;99.90
12130;DHT22;6128;59.340;18.040;2023-02-24T06:37:09;0.10;99.90
12130;DHT22;6128;59.340;18.040;2023-02-24T06:39:37;0.10;99.90
12130;DHT22;6128;59.340;18.040;2023-02-24T06:42:05;0.20;99.90
12130;DHT22;6128;59.340;18.040;2023-02-24T06:44:35;0.20;99.90
12130;DHT22;6128;59.340;18.040;2023-02-24T06:47:06;0.20;99.90
12130;DHT22;6128;59.340;18.040;2023-02-24T06:49:34;0.30;99.90
12130;DHT22;6128;59.340;18.040;2023-02-24T06:52:02;0.30;99.90
12130;DHT22;6128;59.340;18.040;2023-02-24T06:54:29;0.30;99.90
12130;DHT22;6128;59.340;18.040;2023-02-24T06:57:00;0.30;99.90
12130;DHT22;6128;59.340;18.040;2023-02-24T06:59:33;0.30;99.90
12130;DHT22;6128;59.340;18.040;2023-02-24T07:02:00;0.20;99.90
12130;DHT22;6128;59.340;18.040;2023-02-24T07:04:30;0.20;99.90
12130;DHT22;6128;59.340;18.040;2023-02-24T07:07:08;0.20;99.90
12130;DHT22;6128;59.340;18.040;2023-02-24T07:09:39;0.30;99.90
12130;DHT22;6128;59.340;18.040;2023-02-24T07:12:08;0.30;99.90
12130;DHT22;6128;59.340;18.040;2023-02-24T07:14:37;0.30;99.90
12130;DHT22;6128;59.340;18.040;2023-02-24T07:17:05;0.30;99.90
12130;DHT22;6128;59.340;18.040;2023-02-24T07:19:35;0.30;99.90
12130;DHT22;6128;59.340;18.040;2023-02-24T07:22:02;0.30;99.90
12130;DHT22;6128;59.340;18.040;2023-02-24T07:24:31;0.40;99.90
12130;DHT22;6128;59.340;18.040;2023-02-24T07:27:02;0.40;99.90
12130;DHT22;6128;59.340;18.040;2023-02-24T07:29:33;0.40;99.90
12130;DHT22;6128;59.340;18.040;2023-02-24T07:32:05;0.40;99.90
12130;DHT22;6128;59.340;18.040;2023-02-24T07:34:35;0.40;99.90
12130;DHT22;6128;59.340;18.040;2023-02-24T07:37:04;0.30;99.90
12130;DHT22;6128;59.340;18.040;2023-02-24T07:39:33;0.30;99.90
12130;DHT22;6128;59.340;18.040;2023-02-24T07:42:05;0.30;99.90
12130;DHT22;6128;59.340;18.040;2023-02-24T07:44:32;0.40;99.90
12130;DHT22;6128;59.340;18.040;2023-02-24T07:46:59;0.50;99.90
12130;DHT22;6128;59.340;18.040;2023-02-24T07:49:34;0.50;99.90
12130;DHT22;6128;59.340;18.040;2023-02-24T07:52:01;0.50;99.90
12130;DHT22;6128;59.340;18.040;2023-02-24T07:54:29;0.60;99.90
12130;DHT22;6128;59.340;18.040;2023-02-24T07:56:57;0.60;99.90
12130;DHT22;6128;59.340;18.040;2023-02-24T07:59:25;0.60;99.90
12130;DHT22;6128;59.340;18.040;2023-02-24T08:01:53;0.70;99.90
12130;DHT22;6128;59.340;18.040;2023-02-24T08:04:23;0.70;99.90
12130;DHT22;6128;59.340;18.040;2023-02-24T08:06:53;0.70;99.90
12130;DHT22;6128;59.340;18.040;2023-02-24T08:09:30;0.80;99.90
12130;DHT22;6128;59.340;18.040;2023-02-24T08:12:33;0.70;99.90
12130;DHT22;6128;59.340;18.040;2023-02-24T08:15:01;0.70;99.90
12130;DHT22;6128;59.340;18.040;2023-02-24T08:17:42;0.70;99.90
12130;DHT22;6128;59.340;18.040;2023-02-24T08:20:10;0.70;99.90
12130;DHT22;6128;59.340;18.040;2023-02-24T08:22:55;0.70;99.90
12130;DHT22;6128;59.340;18.040;2023-02-24T08:25:25;0.70;99.90
12130;DHT22;6128;59.340;18.040;2023-02-24T08:28:00;0.80;99.90
12130;DHT22;6128;59.340;18.040;2023-02-24T08:30:32;0.80;99.90
12130;DHT22;6128;59.340;18.040;2023-02-24T08:33:04;0.80;99.90
12130;DHT22;6128;59.340;18.040;2023-02-24T08:35:34;0.80;99.90
12130;DHT22;6128;59.340;18.040;2023-02-24T08:38:04;0.90;99.90
12130;DHT22;6128;59.340;18.040;2023-02-24T08:40:35;0.90;99.90
12130;DHT22;6128;59.340;18.040;2023-02-24T08:43:18;1.00;99.90
12130;DHT22;6128;59.340;18.040;2023-02-24T08:45:54;0.90;99.90
12130;DHT22;6128;59.340;18.040;2023-02-24T08:48:23;0.90;99.90
12130;DHT22;6128;59.340;18.040;2023-02-24T08:51:06;0.80;99.90
12130;DHT22;6128;59.340;18.040;2023-02-24T08:53:36;0.80;99.90
12130;DHT22;6128;59.340;18.040;2023-02-24T08:56:06;0.60;99.90
12130;DHT22;6128;59.340;18.040;2023-02-24T08:58:37;0.60;99.90
12130;DHT22;6128;59.340;18.040;2023-02-24T09:01:11;0.60;99.90
12130;DHT22;6128;59.340;18.040;2023-02-24T09:03:44;0.70;99.90
12130;DHT22;6128;59.340;18.040;2023-02-24T09:06:13;0.80;99.90
12130;DHT22;6128;59.340;18.040;2023-02-24T09:08:44;0.80;99.90
12130;DHT22;6128;59.340;18.040;2023-02-24T09:11:13;0.80;99.90
12130;DHT22;6128;59.340;18.040;2023-02-24T09:13:42;0.80;99.90
12130;DHT22;6128;59.340;18.040;2023-02-24T09:16:17;0.80;99.90
12130;DHT22;6128;59.340;18.040;2023-02-24T09:18:45;0.90;99.90
12130;DHT22;6128;59.340;18.040;2023-02-24T09:21:32;0.90;99.90
12130;DHT22;6128;59.340;18.040;2023-02-24T09:24:31;1.00;99.90
12130;DHT22;6128;59.340;18.040;2023-02-24T09:26:58;0.90;99.90
12130;DHT22;6128;59.340;18.040;2023-02-24T09:29:25;0.90;99.90
12130;DHT22;6128;59.340;18.040;2023-02-24T09:32:14;1.00;99.90
12130;DHT22;6128;59.340;18.040;2023-02-24T09:34:42;1.00;99.90
12130;DHT22;6128;59.340;18.040;2023-02-24T09:37:10;1.00;99.90
12130;DHT22;6128;59.340;18.040;2023-02-24T09:39:51;0.90;99.90
12130;DHT22;6128;59.340;18.040;2023-02-24T09:42:38;1.00;99.90
12130;DHT22;6128;59.340;18.040;2023-02-24T09:45:17;1.00;99.90
12130;DHT22;6128;59.340;18.040;2023-02-24T09:47:57;1.10;99.90
12130;DHT22;6128;59.340;18.040;2023-02-24T09:50:38;1.00;99.90
12130;DHT22;6128;59.340;18.040;2023-02-24T09:53:26;1.00;99.90
12130;DHT22;6128;59.340;18.040;2023-02-24T09:56:12;1.00;99.90
12130;DHT22;6128;59.340;18.040;2023-02-24T09:58:46;1.00;99.90
12130;DHT22;6128;59.340;18.040;2023-02-24T10:01:31;1.10;99.90
12130;DHT22;6128;59.340;18.040;2023-02-24T10:04:20;1.20;99.90
12130;DHT22;6128;59.340;18.040;2023-02-24T10:06:57;1.20;99.90
12130;DHT22;6128;59.340;18.040;2023-02-24T10:09:29;1.30;99.90
12130;DHT22;6128;59.340;18.040;2023-02-24T10:12:07;1.30;99.90
12130;DHT22;6128;59.340;18.040;2023-02-24T10:14:45;1.30;99.90
12130;DHT22;6128;59.340;18.040;2023-02-24T10:17:19;1.20;99.90
12130;DHT22;6128;59.340;18.040;2023-02-24T10:19:54;1.20;99.90
12130;DHT22;6128;59.340;18.040;2023-02-24T10:22:33;1.10;99.90
12130;DHT22;6128;59.340;18.040;2023-02-24T10:25:21;1.10;99.90
12130;DHT22;6128;59.340;18.040;2023-02-24T10:27:56;1.00;99.90
12130;DHT22;6128;59.340;18.040;2023-02-24T10:30:33;1.00;99.90
12130;DHT22;6128;59.340;18.040;2023-02-24T10:33:18;1.00;99.90
12130;DHT22;6128;59.340;18.040;2023-02-24T10:35:50;1.10;99.90
12130;DHT22;6128;59.340;18.040;2023-02-24T10:38:20;1.20;99.90
12130;DHT22;6128;59.340;18.040;2023-02-24T10:40:51;1.20;99.90
12130;DHT22;6128;59.340;18.040;2023-02-24T10:43:24;1.20;99.90
12130;DHT22;6128;59.340;18.040;2023-02-24T10:45:58;1.30;99.90
12130;DHT22;6128;59.340;18.040;2023-02-24T10:48:33;1.20;99.90
12130;DHT22;6128;59.340;18.040;2023-02-24T10:51:12;1.20;99.90
12130;DHT22;6128;59.340;18.040;2023-02-24T10:53:49;1.20;99.90
12130;DHT22;6128;59.340;18.040;2023-02-24T10:56:39;1.20;99.90
12130;DHT22;6128;59.340;18.040;2023-02-24T10:59:21;1.30;99.90
12130;DHT22;6128;59.340;18.040;2023-02-24T11:02:17;1.30;99.90
12130;DHT22;6128;59.340;18.040;2023-02-24T11:04:54;1.40;99.90
12130;DHT22;6128;59.340;18.040;2023-02-24T11:07:41;1.30;99.90
12130;DHT22;6128;59.340;18.040;2023-02-24T11:10:20;1.30;99.90
12130;DHT22;6128;59.340;18.040;2023-02-24T11:12:59;1.40;99.90
12130;DHT22;6128;59.340;18.040;2023-02-24T11:15:48;1.40;99.90
12130;DHT22;6128;59.340;18.040;2023-02-24T11:18:34;1.60;99.90
12130;DHT22;6128;59.340;18.040;2023-02-24T11:21:05;1.70;99.90
12130;DHT22;6128;59.340;18.040;2023-02-24T11:23:34;1.80;99.90
12130;DHT22;6128;59.340;18.040;2023-02-24T11:26:12;1.80;99.90
12130;DHT22;6128;59.340;18.040;2023-02-24T11:28:58;1.90;99.90
12130;DHT22;6128;59.340;18.040;2023-02-24T11:31:43;2.00;99.90
12130;DHT22;6128;59.340;18.040;2023-02-24T11:34:20;1.90;99.90
12130;DHT22;6128;59.340;18.040;2023-02-24T11:37:00;1.90;99.90
12130;DHT22;6128;59.340;18.040;2023-02-24T11:39:48;1.90;99.90
12130;DHT22;6128;59.340;18.040;2023-02-24T11:42:21;2.00;99.90
12130;DHT22;6128;59.340;18.040;2023-02-24T11:44:53;2.10;99.90
12130;DHT22;6128;59.340;18.040;2023-02-24T11:47:26;2.20;99.90
12130;DHT22;6128;59.340;18.040;2023-02-24T11:50:03;2.10;99.90
12130;DHT22;6128;59.340;18.040;2023-02-24T11:52:34;2.10;99.90
12130;DHT22;6128;59.340;18.040;2023-02-24T11:55:04;2.10;99.90
12130;DHT22;6128;59.340;18.040;2023-02-24T11:57:42;2.10;99.90
12130;DHT22;6128;59.340;18.040;2023-02-24T12:00:16;2.10;99.90
12130;DHT22;6128;59.340;18.040;2023-02-24T12:02:50;2.00;99.90
12130;DHT22;6128;59.340;18.040;2023-02-24T12:05:22;1.90;99.90
12130;DHT22;6128;59.340;18.040;2023-02-24T12:07:51;1.80;99.90
12130;DHT22;6128;59.340;18.040;2023-02-24T12:10:22;1.80;99.90
12130;DHT22;6128;59.340;18.040;2023-02-24T12:12:58;1.90;99.90
12130;DHT22;6128;59.340;18.040;2023-02-24T12:15:28;2.00;99.90
12130;DHT22;6128;59.340;18.040;2023-02-24T12:18:03;1.90;99.90
12130;DHT22;6128;59.340;18.040;2023-02-24T12:20:35;1.90;99.90
12130;DHT22;6128;59.340;18.040;2023-02-24T12:23:12;1.90;99.90
12130;DHT22;6128;59.340;18.040;2023-02-24T12:25:55;2.00;99.90
12130;DHT22;6128;59.340;18.040;2023-02-24T12:28:40;2.00;99.90
12130;DHT22;6128;59.340;18.040;2023-02-24T12:31:16;2.10;99.90
12130;DHT22;6128;59.340;18.040;2023-02-24T12:33:55;2.20;99.90
12130;DHT22;6128;59.340;18.040;2023-02-24T12:36:42;2.20;99.90
12130;DHT22;6128;59.340;18.040;2023-02-24T12:39:18;2.00;99.90
12130;DHT22;6128;59.340;18.040;2023-02-24T12:41:56;2.10;99.90
12130;DHT22;6128;59.340;18.040;2023-02-24T12:44:34;2.00;99.90
12130;DHT22;6128;59.340;18.040;2023-02-24T12:47:08;2.00;99.90
12130;DHT22;6128;59.340;18.040;2023-02-24T12:49:55;2.00;99.90
12130;DHT22;6128;59.340;18.040;2023-02-24T12:52:30;1.90;99.90
12130;DHT22;6128;59.340;18.040;2023-02-24T12:55:06;1.80;99.90
12130;DHT22;6128;59.340;18.040;2023-02-24T12:57:42;1.80;99.90
12130;DHT22;6128;59.340;18.040;2023-02-24T13:00:15;1.90;99.90
12130;DHT22;6128;59.340;18.040;2023-02-24T13:02:52;1.90;99.90
12130;DHT22;6128;59.340;18.040;2023-02-24T13:05:27;1.90;99.90
12130;DHT22;6128;59.340;18.040;2023-02-24T13:08:13;2.00;99.90
12130;DHT22;6128;59.340;18.040;2023-02-24T13:10:45;1.90;99.90
12130;DHT22;6128;59.340;18.040;2023-02-24T13:13:18;1.80;99.90
12130;DHT22;6128;59.340;18.040;2023-02-24T13:15:50;1.90;99.90
12130;DHT22;6128;59.340;18.040;2023-02-24T13:18:24;1.90;99.90
12130;DHT22;6128;59.340;18.040;2023-02-24T13:21:07;1.80;99.90
12130;DHT22;6128;59.340;18.040;2023-02-24T13:23:36;1.80;99.90
12130;DHT22;6128;59.340;18.040;2023-02-24T13:26:06;1.80;99.90
12130;DHT22;6128;59.340;18.040;2023-02-24T13:28:34;1.90;99.90
12130;DHT22;6128;59.340;18.040;2023-02-24T13:31:05;1.90;99.90
12130;DHT22;6128;59.340;18.040;2023-02-24T13:33:34;2.00;99.90
12130;DHT22;6128;59.340;18.040;2023-02-24T13:36:21;2.00;99.90
12130;DHT22;6128;59.340;18.040;2023-02-24T13:38:50;1.80;99.90
12130;DHT22;6128;59.340;18.040;2023-02-24T13:41:34;1.60;99.90
12130;DHT22;6128;59.340;18.040;2023-02-24T13:44:22;1.50;99.90
12130;DHT22;6128;59.340;18.040;2023-02-24T13:49:53;1.50;99.90
12130;DHT22;6128;59.340;18.040;2023-02-24T13:52:36;1.60;99.90
12130;DHT22;6128;59.340;18.040;2023-02-24T13:58:36;1.70;99.90
12130;DHT22;6128;59.340;18.040;2023-02-24T14:01:10;1.60;99.90
12130;DHT22;6128;59.340;18.040;2023-02-24T14:03:41;1.50;99.90
12130;DHT22;6128;59.340;18.040;2023-02-24T14:06:15;1.30;99.90
12130;DHT22;6128;59.340;18.040;2023-02-24T14:08:47;1.20;99.90
12130;DHT22;6128;59.340;18.040;2023-02-24T14:11:19;1.20;99.90
12130;DHT22;6128;59.340;18.040;2023-02-24T14:13:53;1.30;99.90
12130;DHT22;6128;59.340;18.040;2023-02-24T14:16:24;1.30;99.90
12130;DHT22;6128;59.340;18.040;2023-02-24T14:18:53;1.20;99.90
12130;DHT22;6128;59.340;18.040;2023-02-24T14:21:22;1.20;99.90
12130;DHT22;6128;59.340;18.040;2023-02-24T14:23:59;1.30;99.90
12130;DHT22;6128;59.340;18.040;2023-02-24T14:26:27;1.30;99.90
12130;DHT22;6128;59.340;18.040;2023-02-24T14:28:58;1.30;99.90
12130;DHT22;6128;59.340;18.040;2023-02-24T14:31:27;1.30;99.90
12130;DHT22;6128;59.340;18.040;2023-02-24T14:33:58;1.30;99.90
12130;DHT22;6128;59.340;18.040;2023-02-24T14:36:30;1.40;99.90
12130;DHT22;6128;59.340;18.040;2023-02-24T14:39:06;1.40;99.90
12130;DHT22;6128;59.340;18.040;2023-02-24T14:41:34;1.30;99.90
12130;DHT22;6128;59.340;18.040;2023-02-24T14:44:10;1.40;99.90
12130;DHT22;6128;59.340;18.040;2023-02-24T14:46:47;1.30;99.90
12130;DHT22;6128;59.340;18.040;2023-02-24T14:49:19;1.30;99.90
12130;DHT22;6128;59.340;18.040;2023-02-24T14:51:48;1.30;99.90
12130;DHT22;6128;59.340;18.040;2023-02-24T14:54:27;1.20;99.90
12130;DHT22;6128;59.340;18.040;2023-02-24T14:56:59;1.20;99.90
12130;DHT22;6128;59.340;18.040;2023-02-24T14:59:30;1.30;99.90
12130;DHT22;6128;59.340;18.040;2023-02-24T15:01:58;1.40;99.90
12130;DHT22;6128;59.340;18.040;2023-02-24T15:04:32;1.40;99.90
12130;DHT22;6128;59.340;18.040;2023-02-24T15:07:04;1.40;99.90
12130;DHT22;6128;59.340;18.040;2023-02-24T15:09:40;1.40;99.90
12130;DHT22;6128;59.340;18.040;2023-02-24T15:12:10;1.40;99.90
12130;DHT22;6128;59.340;18.040;2023-02-24T15:14:39;1.50;99.90
12130;DHT22;6128;59.340;18.040;2023-02-24T15:17:10;1.40;99.90
12130;DHT22;6128;59.340;18.040;2023-02-24T15:19:42;1.40;99.90
12130;DHT22;6128;59.340;18.040;2023-02-24T15:22:23;1.40;99.90
12130;DHT22;6128;59.340;18.040;2023-02-24T15:24:54;1.40;99.90
12130;DHT22;6128;59.340;18.040;2023-02-24T15:27:24;1.40;99.90
12130;DHT22;6128;59.340;18.040;2023-02-24T15:30:00;1.40;99.90
12130;DHT22;6128;59.340;18.040;2023-02-24T15:32:31;1.40;99.90
12130;DHT22;6128;59.340;18.040;2023-02-24T15:34:58;1.40;99.90
12130;DHT22;6128;59.340;18.040;2023-02-24T15:37:28;1.40;99.90
12130;DHT22;6128;59.340;18.040;2023-02-24T15:40:05;1.50;99.90
12130;DHT22;6128;59.340;18.040;2023-02-24T15:42:34;1.50;99.90
12130;DHT22;6128;59.340;18.040;2023-02-24T15:45:03;1.50;99.90
12130;DHT22;6128;59.340;18.040;2023-02-24T15:47:41;1.40;99.90
12130;DHT22;6128;59.340;18.040;2023-02-24T15:50:10;1.40;99.90
12130;DHT22;6128;59.340;18.040;2023-02-24T15:52:39;1.40;99.90
12130;DHT22;6128;59.340;18.040;2023-02-24T15:55:09;1.30;99.90
12130;DHT22;6128;59.340;18.040;2023-02-24T15:57:37;1.30;99.90
12130;DHT22;6128;59.340;18.040;2023-02-24T16:00:05;1.30;99.90
12130;DHT22;6128;59.340;18.040;2023-02-24T16:02:39;1.30;99.90
12130;DHT22;6128;59.340;18.040;2023-02-24T16:05:11;1.30;99.90
12130;DHT22;6128;59.340;18.040;2023-02-24T16:07:38;1.30;99.90
12130;DHT22;6128;59.340;18.040;2023-02-24T16:10:13;1.20;99.90
12130;DHT22;6128;59.340;18.040;2023-02-24T16:12:45;1.20;99.90
12130;DHT22;6128;59.340;18.040;2023-02-24T16:15:20;1.20;99.90
12130;DHT22;6128;59.340;18.040;2023-02-24T16:17:48;1.10;99.90
12130;DHT22;6128;59.340;18.040;2023-02-24T16:20:17;1.20;99.90
12130;DHT22;6128;59.340;18.040;2023-02-24T16:22:45;1.20;99.90
12130;DHT22;6128;59.340;18.040;2023-02-24T16:25:15;1.30;99.90
12130;DHT22;6128;59.340;18.040;2023-02-24T16:27:42;1.40;99.90
12130;DHT22;6128;59.340;18.040;2023-02-24T16:30:15;1.30;99.90
12130;DHT22;6128;59.340;18.040;2023-02-24T16:32:43;1.30;99.90
12130;DHT22;6128;59.340;18.040;2023-02-24T16:35:11;1.20;99.90